Time;durP1;ratioP1;P1;durP2;ratioP2;P2;SDS_P1;SDS_P2;PMS_P1;PMS_P2;Temp;Humidity;BMP_temperature;BMP_pressure;BME280_temperature;BME280_humidity;BME280_pressure;Samples;Min_cycle;Max_cycle;Signal;HPM_P1;HPM_P2
2021/09/01 00:00:11;;;;;;;6.00;4.50;;;;;;;12.71;82.02;97183.08;116075;1182;69192;-74
2021/09/01 00:03:00;;;;;;;5.80;4.50;;;;;;;12.73;81.87;97176.90;116147;1184;59520;-73
2021/09/01 00:05:30;;;;;;;9.30;4.10;;;;;;;12.74;81.71;97168.75;116183;1185;59552;-78
2021/09/01 00:08:00;;;;;;;7.50;4.70;;;;;;;12.77;81.56;97169.45;116245;1183;69630;-74
2021/09/01 00:10:30;;;;;;;7.40;4.60;;;;;;;12.79;81.47;97172.14;116214;1179;69464;-74
2021/09/01 00:13:00;;;;;;;7.20;5.00;;;;;;;12.79;81.28;97174.98;116125;1179;68480;-76
2021/09/01 00:15:29;;;;;;;7.60;5.60;;;;;;;12.79;81.34;97174.42;116154;1179;59530;-73
2021/09/01 00:17:59;;;;;;;7.70;4.60;;;;;;;12.79;81.32;97172.14;115955;1186;59540;-77
2021/09/01 00:20:29;;;;;;;7.10;4.80;;;;;;;12.80;81.31;97170.51;116240;1183;71326;-75
2021/09/01 00:22:58;;;;;;;6.10;4.40;;;;;;;12.79;81.14;97169.20;116203;1185;69189;-77
2021/09/01 00:25:29;;;;;;;7.20;4.70;;;;;;;12.79;81.41;97163.31;116182;1185;69023;-74
2021/09/01 00:27:58;;;;;;;6.00;4.80;;;;;;;12.78;81.65;97164.23;116183;1184;59973;-75
2021/09/01 00:30:28;;;;;;;7.50;4.80;;;;;;;12.75;81.62;97159.91;116145;1182;59521;-74
2021/09/01 00:32:58;;;;;;;7.50;4.90;;;;;;;12.73;81.52;97158.54;116127;1185;70544;-74
2021/09/01 00:35:29;;;;;;;6.00;4.40;;;;;;;12.72;82.07;97157.23;116277;1184;68591;-74
2021/09/01 00:37:58;;;;;;;6.90;4.70;;;;;;;12.69;81.74;97152.11;116193;1184;69188;-73
2021/09/01 00:40:31;;;;;;;8.20;4.30;;;;;;;12.68;81.69;97149.17;116276;1185;59588;-79
2021/09/01 00:43:00;;;;;;;6.80;4.50;;;;;;;12.68;81.49;97146.77;116268;1185;59547;-73
2021/09/01 00:45:30;;;;;;;7.70;4.30;;;;;;;12.68;81.28;97144.80;116301;1185;69587;-72
2021/09/01 00:48:00;;;;;;;7.40;3.90;;;;;;;12.69;81.20;97143.96;116285;1184;69207;-78
2021/09/01 00:50:30;;;;;;;5.10;3.90;;;;;;;12.70;81.02;97145.90;116304;1180;68401;-78
2021/09/01 00:53:00;;;;;;;7.20;3.90;;;;;;;12.70;80.88;97144.30;116316;1185;59551;-76
2021/09/01 00:55:30;;;;;;;4.90;3.80;;;;;;;12.71;80.73;97146.09;116301;1184;59533;-73
2021/09/01 00:58:01;;;;;;;5.10;3.90;;;;;;;12.71;80.76;97141.89;116280;1179;69720;-74
2021/09/01 01:01:01;;;;;;;5.20;4.10;;;;;;;12.69;80.73;97141.59;116321;1183;68939;-73
2021/09/01 01:03:32;;;;;;;6.40;3.80;;;;;;;12.65;80.60;97141.65;116194;1182;69207;-77
2021/09/01 01:06:03;;;;;;;5.90;3.90;;;;;;;12.62;80.75;97134.33;116314;1179;59558;-77
2021/09/01 01:08:33;;;;;;;5.30;4.20;;;;;;;12.59;80.99;97129.49;116249;1184;59595;-73
2021/09/01 01:11:03;;;;;;;5.90;4.50;;;;;;;12.54;81.07;97131.84;116251;1184;71419;-73
2021/09/01 01:13:33;;;;;;;6.00;4.80;;;;;;;12.46;81.82;97134.23;116323;1183;68618;-73
2021/09/01 01:16:04;;;;;;;6.70;5.00;;;;;;;12.39;81.65;97130.06;116284;1184;69200;-72
2021/09/01 01:18:34;;;;;;;8.00;4.80;;;;;;;12.32;82.25;97123.81;116198;1178;59561;-73
2021/09/01 01:21:03;;;;;;;7.40;5.10;;;;;;;12.26;82.00;97127.73;116243;1180;59527;-76
2021/09/01 01:23:33;;;;;;;5.10;4.50;;;;;;;12.19;81.93;97127.54;116171;1184;71322;-74
2021/09/01 01:26:03;;;;;;;8.00;4.80;;;;;;;12.12;81.96;97125.46;116295;1184;68898;-74
2021/09/01 01:28:33;;;;;;;7.20;5.30;;;;;;;12.04;82.22;97124.73;116267;1183;68567;-73
2021/09/01 01:31:03;;;;;;;9.00;5.00;;;;;;;11.97;82.11;97123.89;116173;1185;59552;-73
2021/09/01 01:33:33;;;;;;;6.60;5.30;;;;;;;11.90;81.96;97123.63;116310;1182;59492;-73
2021/09/01 01:36:03;;;;;;;8.90;5.10;;;;;;;11.84;82.31;97122.30;116283;1184;71260;-74
2021/09/01 01:38:33;;;;;;;7.70;4.90;;;;;;;11.76;82.50;97119.16;116221;1183;68821;-72
2021/09/01 01:41:04;;;;;;;5.80;4.50;;;;;;;11.68;82.12;97109.53;116312;1185;68417;-73
2021/09/01 01:43:37;;;;;;;7.20;5.40;;;;;;;11.62;82.18;97110.42;116225;1184;60208;-73
2021/09/01 01:46:07;;;;;;;7.00;5.70;;;;;;;11.58;82.51;97106.13;116281;1180;59564;-72
2021/09/01 01:48:37;;;;;;;;;;;;;;;11.56;82.63;97102.64;116098;1182;71244;-77
2021/09/01 01:51:06;;;;;;;7.40;5.80;;;;;;;11.54;83.08;97098.07;116201;1180;68861;-74
2021/09/01 01:53:36;;;;;;;7.50;6.00;;;;;;;11.51;83.17;97096.34;116186;1179;68426;-73
2021/09/01 01:56:06;;;;;;;6.80;5.90;;;;;;;11.49;83.84;97088.19;116277;1183;59530;-72
2021/09/01 01:58:36;;;;;;;8.40;5.90;;;;;;;11.46;84.29;97087.09;116237;1183;59610;-75
2021/09/01 02:01:06;;;;;;;;;;;;;;;11.43;84.70;97088.42;116196;1179;71279;-77
2021/09/01 02:03:37;;;;;;;5.70;5.00;;;;;;;11.38;83.58;97090.84;116230;1184;68467;-76
2021/09/01 02:06:07;;;;;;;8.30;5.70;;;;;;;11.32;83.49;97088.52;116267;1184;69623;-73
2021/09/01 02:08:37;;;;;;;6.00;5.10;;;;;;;11.24;83.51;97085.42;116254;1184;59498;-77
2021/09/01 02:11:07;;;;;;;6.90;5.40;;;;;;;11.16;83.87;97083.41;116260;1182;60275;-73
2021/09/01 02:13:37;;;;;;;9.00;5.40;;;;;;;11.08;85.12;97070.79;116251;1184;71387;-73
2021/09/01 02:16:07;;;;;;;7.60;6.10;;;;;;;11.02;84.45;97064.85;116252;1179;69052;-73
2021/09/01 02:18:39;;;;;;;7.60;6.30;;;;;;;10.97;83.89;97062.34;116201;1184;68349;-74
2021/09/01 02:21:10;;;;;;;8.30;7.00;;;;;;;10.95;83.58;97055.45;116307;1183;59500;-73
2021/09/01 02:23:41;;;;;;;;;;;;;;;10.94;84.94;97051.73;116284;1182;59468;-74
2021/09/01 02:26:11;;;;;;;9.60;7.40;;;;;;;10.96;84.97;97056.20;116253;1185;70750;-73
2021/09/01 02:28:40;;;;;;;7.50;6.60;;;;;;;10.98;84.74;97051.70;116203;1179;68699;-72
2021/09/01 02:31:10;;;;;;;10.50;7.30;;;;;;;10.98;85.05;97047.58;116185;1184;68478;-72
2021/09/01 02:33:39;;;;;;;12.20;8.00;;;;;;;11.05;86.24;97047.01;116147;1184;59546;-71
2021/09/01 02:36:09;;;;;;;11.80;8.50;;;;;;;11.15;86.44;97041.16;116217;1184;59471;-73
2021/09/01 02:38:44;;;;;;;11.60;8.00;;;;;;;11.25;86.04;97038.25;116505;1182;70395;-73
2021/09/01 02:41:15;;;;;;;11.90;7.70;;;;;;;11.33;86.05;97042.55;116568;1184;69114;-74
2021/09/01 02:43:46;;;;;;;13.50;7.00;;;;;;;11.37;85.81;97042.14;116523;1184;68433;-72
2021/09/01 02:46:19;;;;;;;8.80;7.40;;;;;;;11.41;85.77;97035.49;116306;1182;59553;-76
2021/09/01 02:48:50;;;;;;;9.90;7.30;;;;;;;11.44;85.17;97036.40;116285;1179;59527;-72
2021/09/01 02:51:21;;;;;;;;;;;;;;;11.47;85.49;97037.39;116265;1184;70486;-76
2021/09/01 02:53:51;;;;;;;10.10;7.20;;;;;;;11.49;85.09;97035.83;116119;1184;68340;-73
2021/09/01 02:56:20;;;;;;;10.40;6.90;;;;;;;11.50;84.88;97035.95;116242;1184;69286;-75
2021/09/01 02:58:51;;;;;;;8.90;7.40;;;;;;;11.50;85.08;97036.57;116250;1184;59569;-73
2021/09/01 03:01:21;;;;;;;9.70;7.20;;;;;;;11.52;84.87;97037.23;116285;1179;59543;-77
2021/09/01 03:03:52;;;;;;;10.10;7.80;;;;;;;11.53;84.68;97039.87;116301;1184;71221;-77
2021/09/01 03:06:22;;;;;;;7.70;6.80;;;;;;;11.53;84.61;97043.81;116301;1183;67668;-73
2021/09/01 03:08:51;;;;;;;10.80;6.60;;;;;;;11.54;84.66;97041.33;116188;1183;67416;-72
2021/09/01 03:11:22;;;;;;;8.90;7.40;;;;;;;11.54;84.76;97047.14;116275;1179;59613;-74
2021/09/01 03:13:51;;;;;;;8.50;7.60;;;;;;;11.54;85.20;97046.41;116300;1180;60215;-73
2021/09/01 03:16:21;;;;;;;9.80;7.40;;;;;;;11.57;84.85;97049.27;116238;1183;70235;-73
2021/09/01 03:18:52;;;;;;;;;;;;;;;11.59;84.80;97044.08;116327;1180;68702;-72
2021/09/01 03:21:22;;;;;;;8.50;6.80;;;;;;;11.59;84.93;97046.81;116227;1183;68267;-73
2021/09/01 03:23:51;;;;;;;10.10;7.60;;;;;;;11.61;84.58;97047.69;116220;1183;59553;-74
2021/09/01 03:26:21;;;;;;;11.70;7.70;;;;;;;11.62;84.48;97045.93;116246;1183;59502;-73
2021/09/01 03:28:50;;;;;;;9.10;7.50;;;;;;;11.65;84.62;97045.17;116220;1183;69519;-74
2021/09/01 03:31:20;;;;;;;9.50;8.10;;;;;;;11.66;84.52;97048.67;116173;1179;69150;-73
2021/09/01 03:33:51;;;;;;;9.30;7.50;;;;;;;11.68;84.50;97051.33;116055;1184;69046;-73
2021/09/01 03:36:22;;;;;;;10.50;7.90;;;;;;;11.70;84.63;97048.63;116164;1183;59515;-73
2021/09/01 03:38:51;;;;;;;8.50;7.30;;;;;;;11.71;84.88;97054.11;116023;1184;59581;-74
2021/09/01 03:41:21;;;;;;;;;;;;;;;11.73;85.20;97049.38;116221;1181;70993;-73
2021/09/01 03:43:51;;;;;;;8.70;7.80;;;;;;;11.75;85.19;97040.63;116230;1183;68569;-74
2021/09/01 03:46:21;;;;;;;9.60;7.50;;;;;;;11.80;85.01;97043.09;116186;1182;68363;-74
2021/09/01 03:48:51;;;;;;;10.50;7.80;;;;;;;11.83;84.90;97043.84;116197;1179;59553;-78
2021/09/01 03:51:20;;;;;;;10.00;7.70;;;;;;;11.87;84.55;97048.38;116284;1180;59580;-74
2021/09/01 03:53:50;;;;;;;10.20;8.50;;;;;;;11.93;84.35;97048.85;116286;1179;70501;-72
2021/09/01 03:56:20;;;;;;;9.30;8.30;;;;;;;11.99;84.60;97048.52;116229;1183;69460;-75
2021/09/01 03:58:49;;;;;;;10.60;8.20;;;;;;;12.04;84.50;97052.58;116285;1183;67937;-77
2021/09/01 04:01:19;;;;;;;11.80;8.80;;;;;;;12.09;84.40;97051.10;116333;1181;59974;-73
2021/09/01 04:03:49;;;;;;;13.00;7.90;;;;;;;12.15;84.15;97048.39;116158;1183;59549;-73
2021/09/01 04:06:18;;;;;;;10.40;8.50;;;;;;;12.21;83.95;97055.59;116177;1184;71341;-73
2021/09/01 04:08:48;;;;;;;10.60;8.50;;;;;;;12.26;83.85;97055.42;116271;1183;68371;-73
2021/09/01 04:11:17;;;;;;;9.90;8.50;;;;;;;12.31;84.07;97059.15;116153;1181;68407;-75
2021/09/01 04:13:46;;;;;;;9.80;8.20;;;;;;;12.37;83.95;97055.48;116208;1183;59568;-73
2021/09/01 04:16:15;;;;;;;10.20;8.50;;;;;;;12.45;83.67;97060.81;116244;1182;59494;-74
2021/09/01 04:18:45;;;;;;;14.70;9.30;;;;;;;12.52;83.43;97062.25;116204;1183;70661;-72
2021/09/01 04:21:14;;;;;;;10.80;9.00;;;;;;;12.56;83.25;97059.77;116246;1179;69214;-73
2021/09/01 04:23:43;;;;;;;13.60;8.70;;;;;;;12.67;83.01;97061.52;116240;1183;68099;-76
2021/09/01 04:26:12;;;;;;;11.70;8.90;;;;;;;12.66;83.23;97063.12;116246;1179;59551;-75
2021/09/01 04:28:42;;;;;;;13.60;9.40;;;;;;;12.66;83.29;97063.13;116243;1183;59526;-76
2021/09/01 04:31:11;;;;;;;11.40;8.80;;;;;;;12.68;83.23;97067.41;116227;1182;71401;-77
2021/09/01 04:33:40;;;;;;;13.30;9.00;;;;;;;12.73;83.13;97071.63;116243;1183;68646;-74
2021/09/01 04:36:09;;;;;;;13.50;8.90;;;;;;;12.76;83.22;97075.89;116272;1183;68532;-72
2021/09/01 04:38:39;;;;;;;12.30;9.00;;;;;;;12.76;83.45;97075.42;116249;1184;59541;-77
2021/09/01 04:41:08;;;;;;;10.80;9.30;;;;;;;12.77;83.85;97081.26;116328;1182;59454;-74
2021/09/01 04:43:37;;;;;;;11.00;9.20;;;;;;;12.80;83.54;97084.86;116277;1180;71351;-78
2021/09/01 04:46:06;;;;;;;12.80;9.40;;;;;;;12.80;83.82;97083.71;116216;1183;69070;-75
2021/09/01 04:48:35;;;;;;;14.80;10.00;;;;;;;12.83;84.01;97081.62;116178;1183;68447;-76
2021/09/01 04:51:05;;;;;;;12.20;9.90;;;;;;;12.87;83.88;97080.16;116232;1179;59585;-78
2021/09/01 04:53:34;;;;;;;11.20;9.60;;;;;;;12.87;84.07;97088.23;116255;1179;59579;-79
2021/09/01 04:56:03;;;;;;;12.90;10.90;;;;;;;12.84;84.66;97091.65;116252;1178;70892;-72
2021/09/01 04:58:32;;;;;;;14.50;11.20;;;;;;;12.84;84.58;97091.56;116124;1184;69281;-74
2021/09/01 05:01:01;;;;;;;14.70;10.20;;;;;;;12.81;85.06;97092.64;116239;1183;68479;-76
2021/09/01 05:03:31;;;;;;;11.50;10.20;;;;;;;12.80;85.22;97090.30;116129;1184;59609;-74
2021/09/01 05:06:00;;;;;;;14.30;11.00;;;;;;;12.80;85.25;97090.39;116174;1179;59501;-73
2021/09/01 05:08:29;;;;;;;13.70;10.10;;;;;;;12.80;85.20;97088.33;116187;1183;71143;-79
2021/09/01 05:10:59;;;;;;;13.70;11.20;;;;;;;12.81;85.29;97088.85;116109;1179;69141;-74
2021/09/01 05:13:28;;;;;;;10.70;9.60;;;;;;;12.80;85.57;97093.73;116187;1183;68854;-79
2021/09/01 05:16:00;;;;;;;12.80;10.80;;;;;;;12.78;85.84;97095.48;116246;1179;59576;-78
2021/09/01 05:18:29;;;;;;;13.90;11.40;;;;;;;12.77;86.03;97094.90;116238;1183;59543;-76
2021/09/01 05:20:59;;;;;;;15.60;11.60;;;;;;;12.80;85.83;97097.67;116263;1183;71373;-74
2021/09/01 05:23:33;;;;;;;17.80;12.60;;;;;;;12.78;86.11;97099.13;116246;1183;69164;-75
2021/09/01 05:26:06;;;;;;;14.80;12.50;;;;;;;12.86;85.94;97098.88;116206;1179;68543;-79
2021/09/01 05:28:36;;;;;;;13.20;11.20;;;;;;;12.80;85.98;97106.45;116211;1180;59504;-76
2021/09/01 05:31:07;;;;;;;;;;;;;;;12.73;86.74;97108.96;116228;1183;59540;-75
2021/09/01 05:33:38;;;;;;;17.10;13.80;;;;;;;12.69;87.04;97109.89;116230;1183;70533;-78
2021/09/01 05:36:07;;;;;;;15.40;11.90;;;;;;;12.66;87.55;97106.16;116293;1183;68689;-73
2021/09/01 05:38:36;;;;;;;16.60;13.40;;;;;;;12.65;87.55;97106.65;116232;1183;69125;-75
2021/09/01 05:41:05;;;;;;;16.70;12.00;;;;;;;12.65;87.57;97105.46;116182;1179;59588;-78
2021/09/01 05:43:35;;;;;;;18.00;14.30;;;;;;;12.65;87.53;97103.16;116180;1179;59534;-79
2021/09/01 05:46:04;;;;;;;16.80;12.00;;;;;;;12.66;87.59;97100.97;116191;1179;71371;-80
2021/09/01 05:48:34;;;;;;;16.20;13.80;;;;;;;12.69;87.35;97095.44;116110;1180;69243;-78
2021/09/01 05:51:03;;;;;;;17.80;14.80;;;;;;;12.69;87.58;97096.08;116142;1184;69153;-80
2021/09/01 05:53:32;;;;;;;22.50;18.10;;;;;;;12.70;87.64;97091.36;116211;1179;59546;-77
2021/09/01 05:56:06;;;;;;;20.80;16.40;;;;;;;12.66;87.99;97096.77;116156;1178;59551;-74
2021/09/01 05:58:38;;;;;;;22.10;18.70;;;;;;;12.63;88.34;97099.55;116119;1179;70687;-79
2021/09/01 06:01:13;;;;;;;22.40;16.60;;;;;;;12.67;88.18;97100.94;116256;1183;68599;-71
2021/09/01 06:03:45;;;;;;;21.20;18.80;;;;;;;12.64;88.61;97098.31;116199;1179;69247;-74
2021/09/01 06:06:18;;;;;;;20.20;17.80;;;;;;;12.69;88.69;97101.24;116207;1179;59622;-76
2021/09/01 06:08:48;;;;;;;22.50;18.60;;;;;;;12.70;88.71;97102.23;116206;1178;59527;-78
2021/09/01 06:11:24;;;;;;;19.80;16.80;;;;;;;12.75;88.72;97106.49;116198;1179;70371;-75
2021/09/01 06:13:53;;;;;;;22.00;19.60;;;;;;;12.79;88.54;97104.25;116204;1182;69223;-79
2021/09/01 06:16:22;;;;;;;25.60;19.70;;;;;;;12.82;88.42;97103.77;116215;1179;69116;-76
2021/09/01 06:18:51;;;;;;;21.30;18.20;;;;;;;12.81;88.51;97098.14;116020;1185;59552;-79
2021/09/01 06:21:20;;;;;;;23.00;17.80;;;;;;;12.83;88.61;97103.85;116157;1184;59933;-77
2021/09/01 06:23:49;;;;;;;21.40;16.10;;;;;;;12.90;88.65;97108.90;116205;1178;71125;-77
2021/09/01 06:26:18;;;;;;;17.80;13.20;;;;;;;12.92;88.62;97106.70;116205;1179;68248;-79
2021/09/01 06:28:49;;;;;;;20.50;17.40;;;;;;;12.93;88.40;97110.70;116096;1179;68448;-77
2021/09/01 06:31:18;;;;;;;18.10;15.90;;;;;;;12.94;88.59;97108.75;116163;1178;59489;-78
2021/09/01 06:33:47;;;;;;;20.90;16.30;;;;;;;12.97;88.28;97108.63;116213;1179;59962;-75
2021/09/01 06:36:16;;;;;;;19.30;17.10;;;;;;;12.98;88.18;97109.28;116212;1183;70587;-78
2021/09/01 06:38:45;;;;;;;15.00;11.90;;;;;;;13.05;88.14;97110.74;116129;1178;69277;-76
2021/09/01 06:41:14;;;;;;;16.80;13.90;;;;;;;13.07;87.83;97111.36;116178;1183;69899;-75
2021/09/01 06:43:43;;;;;;;17.80;13.60;;;;;;;13.15;86.84;97108.86;116208;1180;59550;-77
2021/09/01 06:46:12;;;;;;;13.20;10.60;;;;;;;13.13;86.79;97113.00;116276;1181;59536;-76
2021/09/01 06:48:41;;;;;;;16.90;13.10;;;;;;;13.11;87.08;97109.45;116186;1179;70590;-74
2021/09/01 06:51:10;;;;;;;17.80;13.30;;;;;;;13.11;87.06;97116.44;116199;1180;69375;-76
2021/09/01 06:53:39;;;;;;;16.80;12.10;;;;;;;13.11;86.88;97119.15;116220;1183;69573;-78
2021/09/01 06:56:08;;;;;;;16.30;12.00;;;;;;;13.11;87.23;97123.77;116186;1183;59547;-77
2021/09/01 06:58:57;;;;;;;13.90;11.40;;;;;;;13.15;86.90;97126.97;116249;1179;59543;-78
2021/09/01 07:01:26;;;;;;;14.80;12.00;;;;;;;13.21;86.63;97126.66;116141;1179;71322;-79
2021/09/01 07:03:56;;;;;;;17.20;12.40;;;;;;;13.18;86.82;97131.46;116216;1183;68241;-79
2021/09/01 07:06:26;;;;;;;13.20;8.70;;;;;;;13.19;86.79;97133.75;116145;1184;68308;-71
2021/09/01 07:08:55;;;;;;;14.00;9.20;;;;;;;13.11;87.05;97140.59;116202;1178;59550;-79
2021/09/01 07:11:24;;;;;;;10.90;9.40;;;;;;;13.13;87.34;97142.10;116170;1182;59992;-75
2021/09/01 07:13:53;;;;;;;15.60;9.70;;;;;;;13.14;87.13;97142.05;116070;1184;71384;-80
2021/09/01 07:16:22;;;;;;;11.40;8.90;;;;;;;13.17;87.10;97144.05;116157;1180;68745;-79
2021/09/01 07:18:51;;;;;;;12.90;10.10;;;;;;;13.16;87.26;97148.63;116133;1183;69554;-80
2021/09/01 07:21:20;;;;;;;13.70;9.60;;;;;;;13.21;87.12;97152.25;116198;1183;59528;-77
2021/09/01 07:23:49;;;;;;;13.40;9.90;;;;;;;13.26;87.06;97152.89;116191;1179;59632;-76
2021/09/01 07:26:18;;;;;;;10.70;7.00;;;;;;;13.29;86.71;97155.77;116233;1183;70594;-79
2021/09/01 07:28:47;;;;;;;9.30;7.70;;;;;;;13.21;86.87;97161.52;116194;1179;69088;-76
2021/09/01 07:31:16;;;;;;;7.30;5.50;;;;;;;13.22;87.38;97159.82;116163;1183;69138;-76
2021/09/01 07:33:45;;;;;;;7.30;5.70;;;;;;;13.24;86.99;97159.95;116198;1179;60472;-74
2021/09/01 07:36:14;;;;;;;8.70;5.40;;;;;;;13.28;86.90;97161.60;116171;1182;59478;-76
2021/09/01 07:38:43;;;;;;;5.90;4.70;;;;;;;13.27;86.93;97162.02;116204;1178;71457;-80
2021/09/01 07:41:12;;;;;;;8.50;3.90;;;;;;;13.28;87.21;97162.73;116188;1183;69182;-77
2021/09/01 07:43:43;;;;;;;4.20;2.70;;;;;;;13.32;87.13;97162.48;116194;1183;68520;-74
2021/09/01 07:46:12;;;;;;;4.10;3.00;;;;;;;13.35;86.45;97165.38;116194;1183;59546;-74
2021/09/01 07:48:41;;;;;;;5.90;3.20;;;;;;;13.37;85.95;97165.28;116174;1179;59550;-77
2021/09/01 07:51:10;;;;;;;5.50;3.90;;;;;;;13.35;86.74;97160.93;116117;1184;71208;-76
2021/09/01 07:53:38;;;;;;;4.00;2.90;;;;;;;13.37;87.33;97166.45;116121;1184;69269;-75
2021/09/01 07:56:07;;;;;;;6.10;2.90;;;;;;;13.41;87.17;97173.48;116164;1183;67687;-78
2021/09/01 07:58:36;;;;;;;6.60;3.00;;;;;;;13.45;86.95;97170.46;116150;1182;59546;-79
2021/09/01 08:01:05;;;;;;;3.30;2.70;;;;;;;13.47;86.78;97166.08;116240;1178;59491;-74
2021/09/01 08:03:35;;;;;;;3.50;2.60;;;;;;;13.56;86.73;97165.52;116187;1183;70633;-76
2021/09/01 08:06:07;;;;;;;4.50;2.90;;;;;;;13.63;87.16;97166.46;116174;1183;69102;-79
2021/09/01 08:08:36;;;;;;;3.50;2.40;;;;;;;13.77;86.52;97167.73;116172;1182;68506;-77
2021/09/01 08:11:05;;;;;;;6.60;3.30;;;;;;;13.85;85.67;97171.17;116164;1181;59566;-77
2021/09/01 08:13:34;;;;;;;7.50;2.80;;;;;;;13.91;85.52;97171.71;116146;1179;59537;-75
2021/09/01 08:16:04;;;;;;;3.50;2.60;;;;;;;14.01;85.51;97173.63;116223;1179;69807;-78
2021/09/01 08:18:33;;;;;;;4.40;2.90;;;;;;;14.08;84.41;97168.99;116262;1183;68553;-77
2021/09/01 08:21:02;;;;;;;6.30;2.80;;;;;;;14.12;84.61;97173.18;116161;1183;68654;-78
2021/09/01 08:23:31;;;;;;;4.20;2.70;;;;;;;14.11;84.59;97173.12;115981;1184;59604;-80
2021/09/01 08:26:00;;;;;;;3.80;2.90;;;;;;;14.17;85.00;97175.95;116205;1183;60019;-80
2021/09/01 08:28:29;;;;;;;3.60;2.80;;;;;;;14.30;84.66;97175.86;116114;1180;71243;-77
2021/09/01 08:30:58;;;;;;;4.40;2.70;;;;;;;14.39;84.27;97177.63;116205;1179;67841;-78
2021/09/01 08:33:27;;;;;;;2.80;2.20;;;;;;;14.46;83.85;97176.12;116179;1183;69240;-78
2021/09/01 08:35:56;;;;;;;3.90;2.70;;;;;;;14.45;84.02;97179.13;116200;1179;59483;-81
2021/09/01 08:38:25;;;;;;;4.80;3.20;;;;;;;14.40;84.09;97185.23;116061;1183;59559;-79
2021/09/01 08:40:54;;;;;;;4.90;3.00;;;;;;;14.44;83.57;97188.58;116145;1184;71365;-79
2021/09/01 08:43:23;;;;;;;3.80;2.70;;;;;;;14.43;83.72;97191.44;116232;1183;69196;-77
2021/09/01 08:45:52;;;;;;;3.60;2.90;;;;;;;14.43;83.79;97192.34;116184;1178;69331;-79
2021/09/01 08:48:22;;;;;;;5.10;4.10;;;;;;;14.43;83.90;97190.92;116024;1182;59588;-73
2021/09/01 08:50:51;;;;;;;8.50;5.70;;;;;;;14.42;84.52;97191.32;116195;1183;59571;-80
2021/09/01 08:53:20;;;;;;;16.70;10.80;;;;;;;14.41;85.21;97194.63;116203;1178;71297;-78
2021/09/01 08:55:52;;;;;;;18.20;12.50;;;;;;;14.44;85.07;97195.80;116203;1179;68297;-78
2021/09/01 08:58:21;;;;;;;16.60;11.90;;;;;;;14.43;85.06;97198.88;116238;1180;67570;-79
2021/09/01 09:00:50;;;;;;;17.30;14.50;;;;;;;14.37;85.41;97201.05;116169;1183;59540;-79
2021/09/01 09:03:19;;;;;;;19.10;14.20;;;;;;;14.39;85.79;97205.01;116082;1181;59534;-75
2021/09/01 09:05:50;;;;;;;15.30;12.30;;;;;;;14.42;85.12;97205.03;116206;1180;71366;-79
2021/09/01 09:08:19;;;;;;;13.50;11.00;;;;;;;14.43;85.45;97207.38;116191;1183;69322;-76
2021/09/01 09:10:48;;;;;;;14.30;11.40;;;;;;;14.48;84.41;97205.60;116183;1180;68357;-77
2021/09/01 09:13:36;;;;;;;14.80;12.40;;;;;;;14.43;84.78;97206.73;116208;1181;59544;-78
2021/09/01 09:16:09;;;;;;;19.30;13.50;;;;;;;14.57;84.27;97209.49;116194;1182;59626;-76
2021/09/01 09:18:40;;;;;;;15.90;13.30;;;;;;;14.61;84.06;97204.43;116206;1183;71953;-76
2021/09/01 09:21:15;;;;;;;17.90;12.60;;;;;;;14.64;84.26;97206.36;116226;1183;67428;-77
2021/09/01 09:23:46;;;;;;;18.50;12.70;;;;;;;14.71;84.70;97204.80;116190;1180;69782;-78
2021/09/01 09:26:22;;;;;;;18.10;14.40;;;;;;;14.80;84.06;97210.17;116224;1183;59545;-76
2021/09/01 09:29:14;;;;;;;18.20;13.10;;;;;;;14.95;83.63;97208.50;116208;1182;59561;-78
2021/09/01 09:32:02;;;;;;;18.30;13.90;;;;;;;15.00;84.22;97202.77;116175;1183;71206;-80
2021/09/01 09:34:33;;;;;;;19.40;12.90;;;;;;;15.25;82.71;97202.51;116208;1183;68485;-80
2021/09/01 09:37:09;;;;;;;16.20;12.30;;;;;;;15.46;82.35;97202.92;116242;1183;68457;-75
2021/09/01 09:39:48;;;;;;;17.20;10.40;;;;;;;15.83;81.41;97200.48;116189;1183;59470;-79
2021/09/01 09:42:36;;;;;;;13.40;9.30;;;;;;;16.26;79.39;97197.59;116180;1180;59556;-74
2021/09/01 09:45:23;;;;;;;15.30;10.10;;;;;;;16.73;77.18;97198.64;116258;1182;72019;-80
2021/09/01 09:47:56;;;;;;;13.30;9.50;;;;;;;16.74;76.30;97198.98;116294;1179;69266;-77
2021/09/01 09:50:25;;;;;;;10.20;7.60;;;;;;;16.65;75.62;97197.58;116227;1183;69250;-77
2021/09/01 09:52:54;;;;;;;9.50;7.30;;;;;;;16.49;76.32;97197.13;116226;1183;59507;-78
2021/09/01 09:55:24;;;;;;;9.50;6.40;;;;;;;16.32;78.05;97193.27;116188;1180;59575;-76
2021/09/01 09:58:00;;;;;;;9.00;6.00;;;;;;;16.45;77.06;97192.29;116155;1183;72025;-80
2021/09/01 10:00:30;;;;;;;10.30;6.80;;;;;;;16.51;76.34;97192.93;116168;1180;69083;-77
2021/09/01 10:02:59;;;;;;;7.60;5.90;;;;;;;16.59;76.72;97184.88;116263;1179;69339;-76
2021/09/01 10:05:29;;;;;;;9.40;6.40;;;;;;;16.63;75.65;97183.31;116259;1183;59554;-78
2021/09/01 10:08:00;;;;;;;10.20;6.20;;;;;;;16.38;76.47;97183.20;116256;1178;59635;-78
2021/09/01 10:10:29;;;;;;;10.60;6.70;;;;;;;16.18;76.58;97190.05;116142;1180;70401;-81
2021/09/01 10:12:58;;;;;;;7.70;6.10;;;;;;;16.00;76.96;97191.75;116236;1182;68310;-77
2021/09/01 10:15:35;;;;;;;8.70;6.70;;;;;;;15.79;77.87;97196.56;116227;1183;69244;-73
2021/09/01 10:18:06;;;;;;;7.50;6.00;;;;;;;15.72;78.52;97194.35;116222;1179;59559;-73
2021/09/01 10:20:41;;;;;;;10.20;6.70;;;;;;;15.78;78.84;97193.59;116171;1180;59540;-79
2021/09/01 10:23:10;;;;;;;7.00;5.40;;;;;;;15.97;77.93;97187.84;116243;1183;71379;-80
2021/09/01 10:25:52;;;;;;;10.30;6.50;;;;;;;16.32;77.32;97185.13;116179;1182;68291;-80
2021/09/01 10:28:31;;;;;;;11.10;6.40;;;;;;;17.19;74.53;97186.09;116239;1183;68277;-80
2021/09/01 10:31:10;;;;;;;10.80;6.20;;;;;;;18.06;71.65;97184.65;116236;1179;59554;-80
2021/09/01 10:33:42;;;;;;;6.40;5.10;;;;;;;18.44;67.96;97176.95;116272;1183;59579;-78
2021/09/01 10:36:26;;;;;;;6.90;5.00;;;;;;;18.35;68.79;97178.52;116304;1183;71139;-78
2021/09/01 10:39:08;;;;;;;7.30;4.90;;;;;;;18.14;70.02;97179.42;116240;1179;69131;-78
2021/09/01 10:41:39;;;;;;;6.50;4.90;;;;;;;17.89;69.37;97180.55;116179;1181;68433;-78
2021/09/01 10:44:41;;;;;;;8.80;4.30;;;;;;;17.43;70.52;97192.48;116120;1183;59562;-81
2021/09/01 10:47:10;;;;;;;6.00;5.00;;;;;;;17.15;72.26;97200.48;116217;1183;59518;-81
2021/09/01 10:49:54;;;;;;;7.70;4.00;;;;;;;16.95;73.52;97204.25;116156;1184;71262;-75
2021/09/01 10:52:23;;;;;;;5.70;4.40;;;;;;;16.60;75.66;97199.44;116240;1178;69198;-80
2021/09/01 10:54:53;;;;;;;11.40;4.70;;;;;;;16.55;75.98;97202.72;116207;1183;69025;-76
2021/09/01 10:57:28;;;;;;;5.90;3.60;;;;;;;16.62;76.42;97210.34;116230;1183;59561;-80
2021/09/01 10:59:59;;;;;;;5.40;3.60;;;;;;;16.93;75.47;97204.83;116231;1179;59488;-77
2021/09/01 11:02:28;;;;;;;5.70;3.60;;;;;;;17.36;75.74;97210.61;116240;1183;70811;-80
2021/09/01 11:04:59;;;;;;;4.50;3.10;;;;;;;17.83;74.91;97208.65;116259;1182;69256;-79
2021/09/01 11:07:32;;;;;;;5.70;3.60;;;;;;;18.08;72.52;97205.31;116231;1179;68535;-77
2021/09/01 11:10:05;;;;;;;5.30;3.50;;;;;;;18.19;70.94;97205.81;116251;1182;59553;-80
2021/09/01 11:12:40;;;;;;;6.80;3.30;;;;;;;18.21;69.66;97207.41;116243;1179;59552;-78
2021/09/01 11:15:10;;;;;;;4.30;3.10;;;;;;;18.29;70.96;97211.30;116157;1183;70556;-75
2021/09/01 11:17:38;;;;;;;5.20;2.70;;;;;;;18.26;69.78;97209.95;116233;1179;68278;-76
2021/09/01 11:20:08;;;;;;;4.80;2.90;;;;;;;18.11;68.79;97204.11;116251;1178;68992;-78
2021/09/01 11:22:38;;;;;;;4.90;3.20;;;;;;;18.12;70.05;97210.69;116265;1182;59548;-81
2021/09/01 11:25:10;;;;;;;7.00;3.30;;;;;;;17.82;68.53;97204.81;116254;1183;59498;-81
2021/09/01 11:27:47;;;;;;;4.50;3.70;;;;;;;17.81;69.70;97206.80;116263;1183;71406;-77
2021/09/01 11:30:16;;;;;;;7.70;3.80;;;;;;;17.92;69.69;97209.84;116283;1183;69067;-78
2021/09/01 11:32:53;;;;;;;6.40;3.70;;;;;;;17.92;68.12;97206.73;116163;1183;68354;-79
2021/09/01 11:35:25;;;;;;;3.80;3.10;;;;;;;18.02;68.49;97207.90;116125;1184;59598;-72
2021/09/01 11:37:59;;;;;;;5.00;3.40;;;;;;;18.17;68.01;97208.05;116100;1184;59531;-74